Archival Weather

Chicago O'Hare International

Chicago, Illinois (KORD)

Report from: Wednesday, September 6, 2023 2:51 AM CDT
Current time: Wednesday, May 29, 2024 6:51 PM CDT

Current weather – Weather history – Daily summaries
Weather forecast

Temperature25.6°C (78.1°F)
Dew point22.2°C (72.0°F)
Winds 9 kts (4.6 m/s, 10.4 mph) South-Southwest (210°)
Visibility10 mi. (16.1 km)
Clouds Ceiling: Broken clouds 2,000 ft. (610 m)
Overcast 8,000 ft. (2,438 m)
Altimeter29.77 in.Hg (1008 mB)
Relative humidity82 %
Density altitude1,780 ft. (543 m)
Sea-level pressure100.8 kPa (1008 mB, 29.75 in.Hg)
Remarks Automated weather observing station with precipitation discriminator
Lightning observed
Distant west and northwest
Flight conditions Marginal Visual Meteorological Conditions
Raw dataKORD 060751Z 21009KT 10SM BKN020 OVC080 26/22 A2977 RMK AO2 LTG DSNT W AND NW SLP075 T02560222
An error has occurred. This application may no longer respond until reloaded. Reload 🗙